createdAt,value
2024-03-16T00:00:27.130Z,97155.44
2024-03-16T00:02:54.399Z,97143.28
2024-03-16T00:05:21.809Z,97149.31
2024-03-16T00:07:49.060Z,97137.31
2024-03-16T00:10:16.833Z,97140.03
2024-03-16T00:12:44.090Z,97137.50
2024-03-16T00:15:11.478Z,97127.19
2024-03-16T00:17:38.666Z,97127.28
2024-03-16T00:20:08.038Z,97137.59
2024-03-16T00:22:35.443Z,97142.63
2024-03-16T00:25:03.034Z,97139.19
2024-03-16T00:27:30.173Z,97141.44
2024-03-16T00:29:57.406Z,97140.41
2024-03-16T00:32:24.837Z,97156.66
2024-03-16T00:34:51.941Z,97154.88
2024-03-16T00:37:19.544Z,97150.63
2024-03-16T00:39:46.590Z,97155.84
2024-03-16T00:42:14.423Z,97160.94
2024-03-16T00:44:41.792Z,97157.22
2024-03-16T00:47:08.986Z,97163.72
2024-03-16T00:49:36.159Z,97150.81
2024-03-16T00:52:03.830Z,97148.84
2024-03-16T00:54:31.378Z,97139.09
2024-03-16T00:56:58.500Z,97143.38
2024-03-16T00:59:25.655Z,97140.47
2024-03-16T01:01:53.230Z,97140.88
2024-03-16T01:04:20.601Z,97138.06
2024-03-16T01:06:48.279Z,97139.53
2024-03-16T01:09:15.230Z,97124.09
2024-03-16T01:11:45.339Z,97132.84
2024-03-16T01:14:12.469Z,97133.69
2024-03-16T01:16:39.620Z,97126.91
2024-03-16T01:19:06.771Z,97129.88
2024-03-16T01:21:33.814Z,97126.00
2024-03-16T01:24:01.493Z,97117.78
2024-03-16T01:26:28.861Z,97124.03
2024-03-16T01:28:56.540Z,97131.19
2024-03-16T01:31:23.690Z,97134.16
2024-03-16T01:33:51.250Z,97128.50
2024-03-16T01:36:19.183Z,97137.59
2024-03-16T01:38:46.237Z,97129.06
2024-03-16T01:41:13.324Z,97126.47
2024-03-16T01:43:40.486Z,97123.13
2024-03-16T01:46:07.827Z,97119.78
2024-03-16T01:48:34.837Z,97115.53
2024-03-16T01:51:03.018Z,97115.63
2024-03-16T01:53:31.445Z,97125.16
2024-03-16T01:55:58.545Z,97119.97
2024-03-16T01:58:26.083Z,97124.25
2024-03-16T02:00:53.352Z,97129.63
2024-03-16T02:03:20.724Z,97134.19
2024-03-16T02:05:47.862Z,97134.19
2024-03-16T02:08:14.979Z,97142.81
2024-03-16T02:10:42.212Z,97144.00
2024-03-16T02:13:10.549Z,97142.38
2024-03-16T02:15:37.468Z,97138.25
2024-03-16T02:18:04.694Z,97142.00
2024-03-16T02:20:31.908Z,97144.69
2024-03-16T02:22:59.011Z,97141.22
2024-03-16T02:25:26.473Z,97145.59
2024-03-16T02:27:53.624Z,97142.91
2024-03-16T02:30:21.037Z,97133.34
2024-03-16T02:32:48.196Z,97134.94
2024-03-16T02:35:15.841Z,97134.84
2024-03-16T02:37:43.021Z,97141.81
2024-03-16T02:40:11.414Z,97146.81
2024-03-16T02:42:38.533Z,97138.25
2024-03-16T02:45:06.741Z,97135.66
2024-03-16T02:47:34.280Z,97135.66
2024-03-16T02:50:01.403Z,97140.59
2024-03-16T02:52:28.573Z,97135.38
2024-03-16T02:54:55.754Z,97144.88
2024-03-16T02:57:22.952Z,97142.72
2024-03-16T02:59:50.032Z,97146.53
2024-03-16T03:02:17.337Z,97135.56
2024-03-16T03:04:44.305Z,97144.38
2024-03-16T03:07:11.874Z,97144.56
2024-03-16T03:09:38.918Z,97139.34
2024-03-16T03:12:06.375Z,97134.16
2024-03-16T03:14:33.811Z,97136.38
2024-03-16T03:17:00.914Z,97139.94
2024-03-16T03:19:28.015Z,97140.59
2024-03-16T03:21:56.756Z,97147.38
2024-03-16T03:24:23.751Z,97137.25
2024-03-16T03:26:51.390Z,97141.59
2024-03-16T03:29:21.373Z,97138.25
2024-03-16T03:31:48.154Z,97133.06
2024-03-16T03:34:15.044Z,97137.34
2024-03-16T03:36:42.095Z,97131.28
2024-03-16T03:39:09.882Z,97135.66
2024-03-16T03:41:36.949Z,97132.22
2024-03-16T03:44:04.150Z,97139.09
2024-03-16T03:46:31.014Z,97134.06
2024-03-16T03:48:58.271Z,97138.34
2024-03-16T03:51:25.987Z,97145.97
2024-03-16T03:53:53.034Z,97146.78
2024-03-16T03:56:20.027Z,97145.41
2024-03-16T03:58:49.721Z,97143.66
2024-03-16T04:01:17.025Z,97152.94
2024-03-16T04:03:44.318Z,97152.94
2024-03-16T04:06:11.992Z,97160.75
2024-03-16T04:08:38.867Z,97167.06
2024-03-16T04:11:07.132Z,97170.59
2024-03-16T04:13:34.805Z,97162.56
2024-03-16T04:16:01.779Z,97154.94
2024-03-16T04:18:28.912Z,97161.09
2024-03-16T04:20:56.288Z,97173.06
2024-03-16T04:23:23.894Z,97164.63
2024-03-16T04:25:50.876Z,97166.31
2024-03-16T04:28:17.944Z,97167.03
2024-03-16T04:30:45.617Z,97166.84
2024-03-16T04:33:13.516Z,97160.75
2024-03-16T04:35:40.442Z,97159.06
2024-03-16T04:38:07.521Z,97167.03
2024-03-16T04:40:35.106Z,97168.81
2024-03-16T04:43:02.297Z,97165.44
2024-03-16T04:45:29.769Z,97158.69
2024-03-16T04:47:56.774Z,97162.47
2024-03-16T04:50:24.330Z,97166.84
2024-03-16T04:52:52.937Z,97173.75
2024-03-16T04:55:20.368Z,97171.13
2024-03-16T04:57:47.745Z,97170.19
2024-03-16T05:00:15.992Z,97177.06
2024-03-16T05:02:43.257Z,97187.22
2024-03-16T05:05:10.864Z,97178.94
2024-03-16T05:07:38.241Z,97173.06
2024-03-16T05:10:06.323Z,97178.34
2024-03-16T05:12:34.075Z,97173.25
2024-03-16T05:15:01.092Z,97183.56
2024-03-16T05:17:28.830Z,97174.66
2024-03-16T05:19:55.944Z,97178.00
2024-03-16T05:22:23.159Z,97182.09
2024-03-16T05:24:50.265Z,97174.84
2024-03-16T05:27:17.559Z,97180.72
2024-03-16T05:29:44.614Z,97184.06
2024-03-16T05:32:11.563Z,97189.81
2024-03-16T05:34:38.550Z,97182.09
2024-03-16T05:37:07.113Z,97189.00
2024-03-16T05:39:35.033Z,97187.88
2024-03-16T05:42:02.758Z,97187.59
2024-03-16T05:44:29.823Z,97189.81
2024-03-16T05:46:56.721Z,97196.63
2024-03-16T05:49:26.791Z,97194.94
2024-03-16T05:51:54.930Z,97198.50
2024-03-16T05:54:22.228Z,97191.69
2024-03-16T05:56:49.268Z,97194.75
2024-03-16T05:59:16.970Z,97202.56
2024-03-16T06:01:44.281Z,97204.25
2024-03-16T06:04:12.648Z,97206.94
2024-03-16T06:06:40.090Z,97209.63
2024-03-16T06:09:09.625Z,97216.47
2024-03-16T06:11:38.123Z,97214.63
2024-03-16T06:14:04.926Z,97216.38
2024-03-16T06:16:32.016Z,97217.78
2024-03-16T06:18:59.674Z,97214.09
2024-03-16T06:21:26.932Z,97219.84
2024-03-16T06:23:53.969Z,97221.34
2024-03-16T06:26:20.944Z,97226.19
2024-03-16T06:28:47.741Z,97230.94
2024-03-16T06:31:14.716Z,97237.44
2024-03-16T06:33:41.841Z,97230.88
2024-03-16T06:36:08.883Z,97232.19
2024-03-16T06:38:35.780Z,97230.13
2024-03-16T06:41:03.206Z,97233.06
2024-03-16T06:43:31.064Z,97240.22
2024-03-16T06:45:58.250Z,97246.53
2024-03-16T06:48:25.379Z,97235.94
2024-03-16T06:50:52.954Z,97246.78
2024-03-16T06:53:19.823Z,97245.59
2024-03-16T06:55:49.394Z,97252.06
2024-03-16T06:58:16.613Z,97254.94
2024-03-16T07:00:43.799Z,97258.91
2024-03-16T07:03:11.267Z,97251.94
2024-03-16T07:05:38.201Z,97253.09
2024-03-16T07:08:07.993Z,97257.00
2024-03-16T07:10:35.239Z,97248.50
2024-03-16T07:13:02.406Z,97243.69
2024-03-16T07:15:29.702Z,97240.50
2024-03-16T07:17:58.316Z,97241.56
2024-03-16T07:20:25.398Z,97247.72
2024-03-16T07:22:52.330Z,97238.75
2024-03-16T07:25:19.225Z,97237.75
2024-03-16T07:27:46.428Z,97241.63
2024-03-16T07:30:13.783Z,97238.19
2024-03-16T07:32:40.727Z,97238.59
2024-03-16T07:35:08.046Z,97243.41
2024-03-16T07:37:35.055Z,97249.16
2024-03-16T07:40:02.527Z,97247.38
2024-03-16T07:42:30.073Z,97250.50
2024-03-16T07:44:57.282Z,97258.56
2024-03-16T07:47:27.148Z,97269.19
2024-03-16T07:49:56.310Z,97258.31
2024-03-16T07:52:23.357Z,97261.66
2024-03-16T07:54:50.558Z,97263.38
2024-03-16T07:57:17.511Z,97260.13
2024-03-16T07:59:44.376Z,97260.22
2024-03-16T08:02:11.891Z,97263.25
2024-03-16T08:04:39.596Z,97259.69
2024-03-16T08:07:07.730Z,97256.81
2024-03-16T08:09:34.904Z,97260.53
2024-03-16T08:12:02.005Z,97260.72
2024-03-16T08:14:29.026Z,97266.16
2024-03-16T08:16:56.217Z,97257.13
2024-03-16T08:19:23.201Z,97256.38
2024-03-16T08:21:51.025Z,97260.94
2024-03-16T08:24:18.595Z,97261.06
2024-03-16T08:26:45.909Z,97256.41
2024-03-16T08:29:12.913Z,97260.34
2024-03-16T08:31:40.271Z,97257.84
2024-03-16T08:34:07.118Z,97259.00
2024-03-16T08:36:36.798Z,97264.97
2024-03-16T08:39:03.848Z,97266.78
2024-03-16T08:41:33.098Z,97263.94
2024-03-16T08:44:00.692Z,97268.47
2024-03-16T08:46:28.347Z,97263.94
2024-03-16T08:48:55.634Z,97268.59
2024-03-16T08:51:22.743Z,97268.59
2024-03-16T08:53:49.887Z,97263.94
2024-03-16T08:56:17.273Z,97258.56
2024-03-16T08:58:47.073Z,97268.34
2024-03-16T09:01:14.700Z,97252.84
2024-03-16T09:03:42.291Z,97260.22
2024-03-16T09:06:10.145Z,97261.22
2024-03-16T09:08:37.268Z,97268.22
2024-03-16T09:11:05.555Z,97267.94
2024-03-16T09:13:33.352Z,97271.25
2024-03-16T09:16:00.554Z,97274.81
2024-03-16T09:18:27.416Z,97277.97
2024-03-16T09:20:54.327Z,97268.50
2024-03-16T09:23:21.461Z,97286.13
2024-03-16T09:25:50.922Z,97279.78
2024-03-16T09:28:19.018Z,97280.75
2024-03-16T09:30:46.619Z,97284.06
2024-03-16T09:33:13.829Z,97280.88
2024-03-16T09:35:41.909Z,97286.25
2024-03-16T09:38:09.039Z,97288.81
2024-03-16T09:40:36.186Z,97295.22
